Time;durP1;ratioP1;P1;durP2;ratioP2;P2;SDS_P1;SDS_P2;PMS_P1;PMS_P2;Temp;Humidity;BMP_temperature;BMP_pressure;BME280_temperature;BME280_humidity;BME280_pressure;Samples;Min_cycle;Max_cycle;Signal;HPM_P1;HPM_P2
2022/08/29 00:02:17;;;;;;;6.32;3.20;;;;;;;18.50;59.12;102347.81;4931204;28;20518;-66
2022/08/29 00:04:46;;;;;;;8.05;3.50;;;;;;;18.46;59.29;102346.06;4923054;28;20352;-66
2022/08/29 00:07:11;;;;;;;7.57;3.25;;;;;;;18.43;59.54;102346.03;4929934;28;20498;-66
2022/08/29 00:09:37;;;;;;;6.03;3.03;;;;;;;18.38;59.60;102340.72;4946212;28;20054;-66
2022/08/29 00:12:03;;;;;;;7.95;3.40;;;;;;;18.36;59.94;102341.63;4934616;28;20109;-65
2022/08/29 00:14:29;;;;;;;5.47;3.22;;;;;;;18.32;60.17;102345.97;4919988;28;20039;-65
2022/08/29 00:16:54;;;;;;;7.03;3.58;;;;;;;18.22;60.12;102350.34;4923066;28;20072;-66
2022/08/29 00:19:20;;;;;;;7.28;3.42;;;;;;;18.12;60.71;102350.25;4938183;28;20018;-66
2022/08/29 00:21:45;;;;;;;7.50;3.33;;;;;;;17.91;61.40;102343.13;4934254;28;20551;-67
2022/08/29 00:24:11;;;;;;;8.52;3.60;;;;;;;17.73;62.17;102343.88;4927138;28;20460;-66
2022/08/29 00:26:44;;;;;;;7.43;3.70;;;;;;;17.70;62.52;102358.78;4929289;28;20030;-67
2022/08/29 00:29:10;;;;;;;6.68;3.63;;;;;;;17.61;63.03;102354.34;4930487;28;20349;-67
2022/08/29 00:31:35;;;;;;;7.65;3.90;;;;;;;17.39;63.73;102352.31;4915234;28;21182;-66
2022/08/29 00:34:00;;;;;;;6.05;3.90;;;;;;;17.32;63.89;102354.03;4932998;28;20034;-66
2022/08/29 00:36:34;;;;;;;7.30;3.78;;;;;;;17.31;64.27;102359.31;4933355;28;20299;-66
2022/08/29 00:39:00;;;;;;;;;;;;;;;17.31;64.60;102359.31;4911976;28;21340;-66
2022/08/29 00:41:27;;;;;;;7.13;4.28;;;;;;;17.26;64.90;102358.38;4931577;28;19921;-66
2022/08/29 00:43:53;;;;;;;8.68;4.63;;;;;;;17.21;65.15;102355.69;4928304;28;20046;-66
2022/08/29 00:46:49;;;;;;;9.00;4.60;;;;;;;17.09;65.60;102352.03;4933253;28;20035;-67
2022/08/29 00:49:39;;;;;;;9.88;5.53;;;;;;;16.89;66.31;102355.38;4930764;28;20555;-66
2022/08/29 00:52:28;;;;;;;10.18;5.45;;;;;;;16.83;66.63;102357.06;4938097;28;20047;-66
2022/08/29 00:54:55;;;;;;;9.20;5.40;;;;;;;16.90;66.71;102348.31;4918293;28;20103;-66
2022/08/29 00:57:22;;;;;;;10.45;5.50;;;;;;;16.97;66.52;102343.16;4932508;28;20084;-66
2022/08/29 00:59:49;;;;;;;10.52;5.70;;;;;;;16.98;66.10;102349.31;4939551;28;20445;-65
2022/08/29 01:02:16;;;;;;;11.38;5.63;;;;;;;16.97;66.08;102348.41;4935750;28;20497;-65
2022/08/29 01:04:46;;;;;;;10.40;5.97;;;;;;;16.98;65.52;102344.91;4919649;28;20563;-65
2022/08/29 01:07:12;;;;;;;11.18;6.10;;;;;;;17.05;65.34;102345.88;4930590;28;20062;-65
2022/08/29 01:09:40;;;;;;;12.43;6.30;;;;;;;17.03;65.10;102356.38;4924570;28;20139;-67
2022/08/29 01:12:15;;;;;;;12.57;5.80;;;;;;;17.03;64.79;102350.22;4931850;28;20404;-67
2022/08/29 01:14:54;;;;;;;9.48;5.88;;;;;;;17.00;64.67;102359.00;4925624;28;20040;-65
2022/08/29 01:17:49;;;;;;;12.10;5.68;;;;;;;16.93;65.12;102358.91;4921122;28;20564;-66
2022/08/29 01:20:17;;;;;;;9.80;6.30;;;;;;;16.83;66.02;102363.19;4925348;28;20058;-66
2022/08/29 01:23:02;;;;;;;15.27;6.47;;;;;;;16.53;68.04;102361.03;4914727;28;20061;-65
2022/08/29 01:25:43;;;;;;;15.60;6.18;;;;;;;16.74;67.58;102368.34;4912140;28;20478;-66
2022/08/29 01:28:16;;;;;;;9.93;5.85;;;;;;;16.85;66.71;102364.09;4944785;28;20146;-66
2022/08/29 01:31:06;;;;;;;11.45;6.13;;;;;;;16.75;66.41;102362.22;4932254;28;20233;-66
2022/08/29 01:33:40;;;;;;;12.70;6.40;;;;;;;16.78;66.25;102359.63;4921995;28;20120;-66
2022/08/29 01:36:06;;;;;;;;;;;;;;;16.85;66.04;102356.19;4927787;28;20027;-65
2022/08/29 01:38:32;;;;;;;11.95;5.93;;;;;;;16.85;65.50;102355.31;4933314;28;19950;-66
2022/08/29 01:40:59;;;;;;;10.77;5.63;;;;;;;16.90;65.88;102361.50;4916052;28;20033;-66
2022/08/29 01:43:26;;;;;;;11.48;5.60;;;;;;;16.82;65.62;102361.44;4916298;28;20398;-66
2022/08/29 01:45:52;;;;;;;9.38;5.22;;;;;;;16.88;65.56;102360.63;4929621;28;20042;-65
2022/08/29 01:48:19;;;;;;;10.13;5.40;;;;;;;16.82;65.32;102371.09;4926188;28;20027;-65
2022/08/29 01:50:45;;;;;;;11.10;5.75;;;;;;;16.81;65.48;102364.03;4927901;28;20031;-66
2022/08/29 01:53:11;;;;;;;9.93;5.50;;;;;;;16.79;65.70;102363.13;4927813;28;20054;-67
2022/08/29 01:55:38;;;;;;;9.93;5.47;;;;;;;16.82;65.55;102364.06;4940062;28;20035;-65
2022/08/29 01:58:04;;;;;;;10.32;5.43;;;;;;;16.77;65.85;102365.75;4912999;28;20590;-65
2022/08/29 02:00:30;;;;;;;11.05;5.60;;;;;;;16.73;66.13;102360.44;4943364;28;20042;-65
2022/08/29 02:02:59;;;;;;;12.93;5.45;;;;;;;16.75;65.61;102356.97;4911661;28;20041;-66
2022/08/29 02:05:25;;;;;;;11.00;5.10;;;;;;;16.72;65.46;102356.91;4924104;28;20054;-65
2022/08/29 02:07:50;;;;;;;9.95;5.30;;;;;;;16.72;65.33;102363.91;4923626;28;20031;-65
2022/08/29 02:10:16;;;;;;;9.80;5.13;;;;;;;16.71;65.28;102365.66;4941368;28;20112;-66
2022/08/29 02:12:44;;;;;;;13.32;5.35;;;;;;;16.63;65.65;102370.88;4913454;28;20145;-65
2022/08/29 02:15:10;;;;;;;10.73;5.47;;;;;;;16.69;65.97;102362.16;4924796;28;20353;-65
2022/08/29 02:17:36;;;;;;;11.77;5.10;;;;;;;16.65;66.07;102355.06;4919743;28;20039;-67
2022/08/29 02:20:05;;;;;;;9.65;5.35;;;;;;;16.57;66.17;102354.06;4931087;28;20394;-64
2022/08/29 02:22:32;;;;;;;10.90;5.20;;;;;;;16.58;66.71;102347.94;4928271;28;20026;-67
2022/08/29 02:24:57;;;;;;;9.90;5.18;;;;;;;16.62;66.63;102348.03;4921415;28;20373;-65
2022/08/29 02:27:22;;;;;;;10.07;4.70;;;;;;;16.71;66.30;102355.13;4926002;28;20122;-66
2022/08/29 02:29:48;;;;;;;8.18;4.82;;;;;;;16.72;66.43;102350.75;4933796;28;20158;-65
2022/08/29 02:32:21;;;;;;;11.50;5.13;;;;;;;16.65;66.45;102341.91;4926297;28;20035;-66
2022/08/29 02:34:47;;;;;;;10.02;5.00;;;;;;;16.63;66.43;102344.53;4909470;28;20030;-66
2022/08/29 02:37:13;;;;;;;9.27;5.00;;;;;;;16.56;66.55;102347.03;4930491;28;20066;-66
2022/08/29 02:39:38;;;;;;;10.38;5.32;;;;;;;16.21;67.83;102359.75;4946669;28;20113;-66
2022/08/29 02:42:04;;;;;;;8.15;5.00;;;;;;;16.42;68.10;102351.22;4916933;28;20042;-66
2022/08/29 02:44:30;;;;;;;8.93;4.75;;;;;;;16.52;67.57;102355.78;4919628;28;20114;-67
2022/08/29 02:46:56;;;;;;;8.73;4.80;;;;;;;16.58;67.48;102354.09;4906264;28;20780;-65
2022/08/29 02:49:21;;;;;;;10.85;4.72;;;;;;;16.52;67.43;102358.41;4931866;28;20081;-65
2022/08/29 02:51:47;;;;;;;9.00;5.15;;;;;;;16.42;67.70;102356.50;4935401;28;20215;-65
2022/08/29 02:54:15;;;;;;;10.15;5.32;;;;;;;16.35;68.44;102360.78;4922716;28;20918;-66
2022/08/29 02:56:57;;;;;;;9.85;5.15;;;;;;;16.39;68.65;102357.38;4932757;28;20461;-66
2022/08/29 02:59:22;;;;;;;8.63;4.70;;;;;;;16.47;68.35;102350.44;4933659;28;20059;-65
2022/08/29 03:01:48;;;;;;;8.93;4.88;;;;;;;16.41;68.10;102350.34;4937809;28;20517;-66
2022/08/29 03:04:16;;;;;;;9.10;5.05;;;;;;;16.27;68.68;102349.31;4935975;28;20136;-66
2022/08/29 03:06:44;;;;;;;8.18;4.97;;;;;;;16.32;68.87;102346.72;4939047;28;20039;-66
2022/08/29 03:09:17;;;;;;;7.82;4.75;;;;;;;16.42;68.47;102349.50;4944021;28;20737;-65
2022/08/29 03:11:42;;;;;;;8.23;4.55;;;;;;;16.42;67.95;102352.13;4920358;28;20113;-66
2022/08/29 03:14:08;;;;;;;7.35;4.68;;;;;;;16.45;67.60;102352.19;4920665;28;20510;-66
2022/08/29 03:16:33;;;;;;;8.02;4.30;;;;;;;16.58;67.21;102343.56;4925052;28;20045;-66
2022/08/29 03:18:59;;;;;;;8.25;4.20;;;;;;;16.63;66.81;102355.06;4921114;28;20046;-66
2022/08/29 03:21:25;;;;;;;7.82;4.10;;;;;;;16.68;66.31;102347.22;4929455;28;20035;-66
2022/08/29 03:23:52;;;;;;;8.18;4.05;;;;;;;16.54;65.95;102346.13;4921900;28;20038;-66
2022/08/29 03:26:26;;;;;;;6.88;4.35;;;;;;;16.53;65.96;102344.34;4922978;28;20093;-66
2022/08/29 03:28:52;;;;;;;7.10;3.85;;;;;;;16.43;66.41;102334.59;4925207;28;20035;-66
2022/08/29 03:31:17;;;;;;;6.32;3.95;;;;;;;16.38;66.65;102336.28;4925653;28;20328;-66
2022/08/29 03:33:43;;;;;;;7.80;4.00;;;;;;;16.38;66.50;102328.38;4927234;28;20039;-65
2022/08/29 03:36:09;;;;;;;5.80;3.72;;;;;;;16.34;66.74;102332.72;4918055;28;20686;-65
2022/08/29 03:38:37;;;;;;;7.38;3.95;;;;;;;16.31;67.10;102331.78;4933993;28;20145;-65
2022/08/29 03:41:03;;;;;;;6.50;3.80;;;;;;;16.28;67.18;102321.25;4916789;28;20436;-66
2022/08/29 03:43:29;;;;;;;5.60;3.83;;;;;;;16.27;67.40;102328.25;4932735;28;20677;-67
2022/08/29 03:45:54;;;;;;;7.35;3.75;;;;;;;16.26;67.45;102318.59;4933203;28;20613;-65
2022/08/29 03:48:19;;;;;;;7.18;3.90;;;;;;;16.30;67.45;102322.13;4928946;28;20047;-67
2022/08/29 03:50:46;;;;;;;6.85;4.00;;;;;;;16.26;67.33;102315.94;4922561;28;20438;-66
2022/08/29 03:53:12;;;;;;;6.97;3.58;;;;;;;16.27;67.03;102307.19;4927628;28;20418;-66
2022/08/29 03:55:38;;;;;;;7.18;3.70;;;;;;;16.23;67.04;102313.25;4932797;28;20053;-65
2022/08/29 03:58:03;;;;;;;7.53;3.67;;;;;;;16.23;66.96;102321.16;4942414;28;20035;-66
2022/08/29 04:00:29;;;;;;;6.55;3.25;;;;;;;16.19;67.10;102311.47;4943633;28;20039;-66
2022/08/29 04:02:56;;;;;;;7.18;3.75;;;;;;;16.15;67.50;102313.19;4927532;28;20514;-67
2022/08/29 04:05:22;;;;;;;7.35;3.63;;;;;;;16.19;67.64;102307.09;4914427;28;20532;-66
2022/08/29 04:07:55;;;;;;;6.30;3.60;;;;;;;16.20;67.31;102308.88;4935169;28;20097;-65
2022/08/29 04:10:21;;;;;;;6.27;3.80;;;;;;;16.14;67.64;102315.78;4924384;28;20294;-66
2022/08/29 04:12:47;;;;;;;7.32;3.70;;;;;;;16.14;67.90;102310.53;4918862;28;20050;-66
2022/08/29 04:15:13;;;;;;;6.25;3.60;;;;;;;16.10;68.17;102317.47;4926831;28;20244;-65
2022/08/29 04:17:42;;;;;;;6.32;3.60;;;;;;;16.14;68.30;102315.78;4935573;28;20921;-65
2022/08/29 04:20:08;;;;;;;5.63;3.50;;;;;;;16.17;68.45;102310.56;4939417;28;21002;-65
2022/08/29 04:22:35;;;;;;;6.53;3.60;;;;;;;16.14;68.71;102326.31;4937109;28;20603;-65
2022/08/29 04:25:03;;;;;;;5.55;3.45;;;;;;;16.16;68.38;102330.72;4910930;28;20485;-67
2022/08/29 04:27:28;;;;;;;5.78;3.75;;;;;;;16.17;68.48;102321.97;4948294;28;20343;-67
2022/08/29 04:30:00;;;;;;;7.70;3.55;;;;;;;16.22;68.48;102319.41;4930643;28;20810;-64
2022/08/29 04:32:25;;;;;;;6.95;3.50;;;;;;;16.20;68.11;102323.75;4949328;28;20396;-66
2022/08/29 04:34:55;;;;;;;7.90;3.78;;;;;;;16.23;68.42;102332.56;4917702;28;20019;-65
2022/08/29 04:37:20;;;;;;;5.13;3.50;;;;;;;16.24;68.49;102336.09;4930996;28;20011;-65
2022/08/29 04:39:45;;;;;;;6.82;3.65;;;;;;;16.31;68.85;102332.69;4927989;28;20030;-66
2022/08/29 04:42:12;;;;;;;6.75;3.80;;;;;;;16.44;68.63;102336.34;4933686;28;20030;-67
2022/08/29 04:44:45;;;;;;;6.65;3.58;;;;;;;16.57;68.43;102338.28;4934627;28;20026;-65
2022/08/29 04:47:11;;;;;;;5.00;3.50;;;;;;;16.70;67.98;102334.97;4916443;28;20109;-65
2022/08/29 04:49:36;;;;;;;5.45;3.53;;;;;;;16.78;67.00;102342.91;4938169;28;20963;-66
2022/08/29 04:52:02;;;;;;;4.85;3.35;;;;;;;16.85;66.52;102345.66;4921850;28;21366;-65
2022/08/29 04:54:27;;;;;;;6.57;3.22;;;;;;;16.88;66.25;102350.09;4941722;28;20085;-65
2022/08/29 04:57:04;;;;;;;7.00;3.45;;;;;;;16.95;66.02;102351.91;4923384;28;20298;-65
2022/08/29 04:59:30;;;;;;;6.60;3.40;;;;;;;16.98;65.61;102351.94;4921056;28;20958;-65
2022/08/29 05:01:56;;;;;;;5.85;3.35;;;;;;;17.02;65.50;102353.72;4924301;28;20046;-66
2022/08/29 05:04:24;;;;;;;6.97;3.45;;;;;;;17.09;65.67;102352.94;4914491;28;20054;-66
2022/08/29 05:06:50;;;;;;;5.40;3.20;;;;;;;17.14;65.77;102351.22;4922929;28;20047;-66
2022/08/29 05:09:15;;;;;;;5.68;3.25;;;;;;;17.16;65.50;102346.84;4931924;28;20491;-65
2022/08/29 05:11:41;;;;;;;7.40;3.50;;;;;;;17.19;65.10;102354.81;4947053;28;20035;-65
2022/08/29 05:14:09;;;;;;;5.10;3.50;;;;;;;17.24;65.11;102360.13;4905777;28;20536;-65
2022/08/29 05:16:36;;;;;;;6.85;3.53;;;;;;;17.16;65.36;102361.78;4923783;28;20684;-65
2022/08/29 05:19:04;;;;;;;5.88;3.70;;;;;;;17.15;65.63;102360.88;4913677;28;20912;-65
2022/08/29 05:21:33;;;;;;;5.50;3.60;;;;;;;17.21;66.06;102357.44;4923743;28;20472;-66
2022/08/29 05:23:59;;;;;;;6.32;3.80;;;;;;;17.27;66.71;102362.75;4924331;28;20101;-65
2022/08/29 05:26:31;;;;;;;7.13;3.40;;;;;;;17.42;66.29;102368.19;4935247;28;20090;-65
2022/08/29 05:28:57;;;;;;;6.22;3.40;;;;;;;17.50;65.69;102366.50;4905203;28;20053;-65
2022/08/29 05:31:23;;;;;;;5.88;3.60;;;;;;;17.57;64.91;102372.69;4928782;28;20039;-65
2022/08/29 05:33:50;;;;;;;6.78;3.65;;;;;;;17.59;65.18;102373.59;4935852;28;20045;-65
2022/08/29 05:36:18;;;;;;;6.40;3.65;;;;;;;17.59;65.27;102374.50;4927547;28;20515;-67
2022/08/29 05:38:45;;;;;;;7.22;4.00;;;;;;;17.64;65.06;102374.56;4918647;28;20081;-66
2022/08/29 05:41:10;;;;;;;11.00;4.07;;;;;;;17.67;65.03;102372.84;4926188;28;20031;-65
2022/08/29 05:43:36;;;;;;;8.07;3.90;;;;;;;17.73;64.93;102375.53;4935975;28;20035;-66
2022/08/29 05:46:08;;;;;;;6.88;4.47;;;;;;;17.77;64.40;102379.06;4942644;28;20038;-65
2022/08/29 05:48:34;;;;;;;8.13;4.25;;;;;;;17.86;64.42;102383.53;4921986;28;20529;-65
2022/08/29 05:51:01;;;;;;;8.25;4.82;;;;;;;17.81;64.46;102383.47;4923657;28;20243;-65
2022/08/29 05:53:27;;;;;;;9.80;5.10;;;;;;;17.75;64.14;102391.34;4932798;28;20034;-65
2022/08/29 05:55:55;;;;;;;10.52;5.32;;;;;;;17.94;63.14;102384.44;4938642;28;20130;-66
2022/08/29 05:58:20;;;;;;;9.20;5.57;;;;;;;17.99;63.04;102386.25;4912859;28;20038;-66
2022/08/29 06:00:47;;;;;;;9.27;5.20;;;;;;;17.98;63.27;102387.16;4919037;28;20506;-67
2022/08/29 06:03:14;;;;;;;9.07;5.43;;;;;;;17.89;62.87;102391.44;4934714;28;20340;-66
2022/08/29 06:05:40;;;;;;;10.50;5.22;;;;;;;17.87;63.50;102390.59;4931328;28;20540;-66
2022/08/29 06:08:05;;;;;;;8.15;5.05;;;;;;;17.92;63.54;102387.09;4937151;28;20062;-66
2022/08/29 06:10:31;;;;;;;9.15;4.90;;;;;;;17.95;63.24;102384.47;4914742;28;20494;-66
2022/08/29 06:13:03;;;;;;;8.60;4.93;;;;;;;18.14;63.27;102381.09;4909399;28;20089;-67
2022/08/29 06:15:34;;;;;;;8.77;4.80;;;;;;;18.41;62.87;102383.00;4920940;28;20414;-67
2022/08/29 06:17:59;;;;;;;7.25;4.82;;;;;;;18.59;62.20;102383.13;4932719;28;20397;-67
2022/08/29 06:20:27;;;;;;;7.43;4.80;;;;;;;18.69;60.98;102381.38;4928969;28;20024;-67
2022/08/29 06:22:53;;;;;;;7.90;5.10;;;;;;;18.64;60.67;102386.66;4912412;28;20039;-66
2022/08/29 06:25:18;;;;;;;8.82;4.90;;;;;;;18.85;60.10;102379.66;4914316;28;20220;-68
2022/08/29 06:27:44;;;;;;;11.60;5.10;;;;;;;19.01;60.30;102384.16;4909931;28;20041;-67
2022/08/29 06:30:10;;;;;;;10.20;5.35;;;;;;;19.16;60.03;102378.00;4920848;28;20033;-66
2022/08/29 06:32:35;;;;;;;9.35;5.55;;;;;;;19.07;60.23;102385.91;4920338;28;20026;-66
2022/08/29 06:35:00;;;;;;;8.13;5.15;;;;;;;19.31;59.62;102373.63;4911542;28;20342;-66
2022/08/29 06:37:26;;;;;;;10.73;5.00;;;;;;;19.38;59.62;102374.53;4924003;28;20106;-68
2022/08/29 06:39:54;;;;;;;12.25;4.68;;;;;;;19.24;59.10;102377.13;4922235;28;20414;-67
2022/08/29 06:42:25;;;;;;;9.07;4.30;;;;;;;19.59;56.85;102386.88;4932254;28;20761;-67
2022/08/29 06:44:51;;;;;;;10.70;4.50;;;;;;;19.66;56.85;102386.00;4916806;28;20046;-67
2022/08/29 06:47:17;;;;;;;11.90;4.40;;;;;;;19.64;58.07;102382.50;4909162;28;20568;-66
2022/08/29 06:49:43;;;;;;;12.95;4.70;;;;;;;19.60;58.68;102386.00;4939052;28;20130;-72
2022/08/29 06:52:14;;;;;;;14.23;4.47;;;;;;;19.72;58.65;102386.00;4929224;28;20322;-74
2022/08/29 06:54:39;;;;;;;15.57;4.38;;;;;;;19.78;58.29;102384.25;4918031;28;20505;-67
2022/08/29 06:57:05;;;;;;;18.90;5.20;;;;;;;20.18;57.02;102385.09;4883827;28;20539;-65
2022/08/29 06:59:31;;;;;;;22.98;4.65;;;;;;;20.54;56.73;102378.81;4927603;28;20030;-72
2022/08/29 07:01:56;;;;;;;18.27;4.47;;;;;;;21.05;57.05;102372.34;4927425;28;20173;-71
2022/08/29 07:04:22;;;;;;;11.25;3.97;;;;;;;21.90;53.64;102378.78;4930582;28;20047;-66
2022/08/29 07:06:47;;;;;;;9.48;3.80;;;;;;;23.02;48.50;102376.63;4905208;28;20580;-65
2022/08/29 07:09:16;;;;;;;6.00;3.25;;;;;;;23.65;44.85;102381.91;4926560;28;20130;-68
2022/08/29 07:11:41;;;;;;;7.85;3.25;;;;;;;24.48;43.03;102382.13;4944478;28;20050;-66
2022/08/29 07:14:09;;;;;;;7.60;3.30;;;;;;;24.79;40.96;102375.25;4924746;28;20097;-67
2022/08/29 07:16:35;;;;;;;7.45;3.10;;;;;;;24.95;40.49;102376.69;4927001;28;20125;-66
2022/08/29 07:19:05;;;;;;;7.65;3.45;;;;;;;25.97;37.99;102379.53;4905968;28;20034;-67
2022/08/29 07:21:32;;;;;;;9.38;3.10;;;;;;;26.36;37.03;102379.38;4923003;28;20117;-67
2022/08/29 07:23:57;;;;;;;8.45;3.45;;;;;;;25.95;39.13;102377.81;4911626;28;20042;-67
2022/08/29 07:26:31;;;;;;;6.70;3.20;;;;;;;25.77;39.39;102374.72;4930603;28;20042;-68
2022/08/29 07:29:00;;;;;;;9.63;3.58;;;;;;;26.02;36.77;102374.06;4915739;28;20042;-66
2022/08/29 07:31:30;;;;;;;8.65;3.45;;;;;;;25.71;39.06;102368.66;4946296;28;20222;-66
2022/08/29 07:33:55;;;;;;;9.68;3.67;;;;;;;25.30;39.83;102377.69;4936242;28;20073;-66
2022/08/29 07:36:21;;;;;;;9.00;3.75;;;;;;;25.01;42.47;102379.22;4924633;28;20215;-66
2022/08/29 07:38:46;;;;;;;10.25;3.70;;;;;;;25.16;39.42;102375.31;4919472;28;20085;-66
2022/08/29 07:41:13;;;;;;;8.90;3.65;;;;;;;24.75;40.50;102378.91;4923714;28;20208;-66
2022/08/29 07:43:40;;;;;;;10.63;4.40;;;;;;;24.12;43.61;102368.59;4931082;28;20117;-67
2022/08/29 07:46:07;;;;;;;9.27;3.60;;;;;;;23.98;43.99;102383.94;4933507;28;20023;-66
2022/08/29 07:48:33;;;;;;;9.10;3.60;;;;;;;23.82;44.66;102383.38;4914752;28;20581;-66
2022/08/29 07:50:58;;;;;;;6.82;3.35;;;;;;;23.83;42.13;102385.13;4925511;28;20073;-67
2022/08/29 07:53:24;;;;;;;10.35;3.55;;;;;;;23.71;42.98;102380.00;4916118;28;20039;-66
2022/08/29 07:55:52;;;;;;;6.40;3.20;;;;;;;23.38;43.77;102384.06;4926428;28;21150;-66
2022/08/29 07:58:18;;;;;;;8.65;3.17;;;;;;;23.49;44.61;102385.69;4929671;28;20833;-66
2022/08/29 08:00:44;;;;;;;8.45;3.50;;;;;;;23.47;43.68;102380.41;4917058;28;20043;-67
2022/08/29 08:03:10;;;;;;;8.30;3.60;;;;;;;23.18;45.61;102383.47;4930093;28;20384;-66
2022/08/29 08:05:37;;;;;;;7.57;3.20;;;;;;;23.22;46.18;102374.56;4929831;28;20110;-67
2022/08/29 08:08:02;;;;;;;7.63;2.78;;;;;;;23.09;46.78;102370.31;4929395;28;20031;-66
2022/08/29 08:10:28;;;;;;;7.05;3.33;;;;;;;23.32;45.07;102372.63;4929200;28;20069;-67
2022/08/29 08:12:53;;;;;;;7.78;3.15;;;;;;;23.39;42.85;102375.19;4932116;28;20043;-67
2022/08/29 08:15:20;;;;;;;9.13;3.50;;;;;;;23.35;42.47;102378.81;4921680;28;20034;-66
2022/08/29 08:17:46;;;;;;;8.90;3.33;;;;;;;23.53;41.44;102377.66;4934053;28;20105;-66
2022/08/29 08:20:11;;;;;;;5.82;3.03;;;;;;;23.53;41.47;102379.44;4915460;28;20461;-67
2022/08/29 08:22:37;;;;;;;10.95;3.35;;;;;;;23.66;41.25;102381.88;4937119;28;20053;-70
2022/08/29 08:25:04;;;;;;;6.53;3.40;;;;;;;22.72;43.50;102385.00;4907863;28;20843;-70
2022/08/29 08:27:30;;;;;;;9.05;3.40;;;;;;;22.42;44.01;102387.13;4941015;28;20121;-70
2022/08/29 08:29:57;;;;;;;7.80;3.25;;;;;;;22.93;44.19;102393.59;4916113;28;20049;-72
2022/08/29 08:32:25;;;;;;;5.60;3.00;;;;;;;;;;4938255;28;20053;-71
2022/08/29 08:34:51;;;;;;;9.15;3.08;;;;;;;23.62;41.67;102384.59;4914948;28;20023;-71
2022/08/29 08:37:16;;;;;;;7.80;3.45;;;;;;;23.47;41.30;102388.41;4930510;28;20042;-71
2022/08/29 08:39:43;;;;;;;5.97;3.30;;;;;;;23.21;41.83;102386.09;4930565;28;20419;-70
2022/08/29 08:42:19;;;;;;;6.90;3.40;;;;;;;23.44;42.50;102380.41;4928787;28;20588;-72
2022/08/29 08:45:00;;;;;;;14.98;3.70;;;;;;;24.18;40.37;102373.84;4921681;28;20097;-72
2022/08/29 08:47:40;;;;;;;8.07;3.30;;;;;;;23.64;40.60;102391.66;4931044;28;20085;-71
2022/08/29 08:50:12;;;;;;;8.70;3.17;;;;;;;23.42;41.51;102400.88;4924262;28;20031;-71
2022/08/29 08:52:57;;;;;;;8.68;3.20;;;;;;;23.31;41.26;102397.47;4923226;28;20041;-72
2022/08/29 08:55:33;;;;;;;6.97;3.10;;;;;;;23.94;39.38;102398.25;4927611;28;20422;-69
2022/08/29 08:58:12;;;;;;;7.75;3.15;;;;;;;23.21;41.42;102402.06;4931185;28;20037;-71
2022/08/29 09:00:53;;;;;;;6.55;2.92;;;;;;;23.41;40.76;102399.13;4922821;28;20391;-71
2022/08/29 09:03:54;;;;;;;6.43;2.83;;;;;;;23.86;39.53;102400.16;4926516;28;20109;-69
2022/08/29 09:06:50;;;;;;;6.32;2.92;;;;;;;22.95;40.98;102404.22;4938349;28;20049;-70
2022/08/29 09:09:16;;;;;;;5.70;2.83;;;;;;;23.05;42.69;102398.75;4930978;28;20926;-72
2022/08/29 09:11:55;;;;;;;8.27;3.00;;;;;;;23.19;41.89;102409.19;4925389;28;20035;-69
2022/08/29 09:14:45;;;;;;;4.72;2.50;;;;;;;22.61;42.06;102401.97;4935311;28;20687;-70
2022/08/29 09:17:20;;;;;;;4.95;2.80;;;;;;;22.92;42.60;102404.28;4929622;28;20506;-71
2022/08/29 09:19:47;;;;;;;6.72;2.75;;;;;;;23.20;42.41;102412.72;4925173;28;20125;-70
2022/08/29 09:22:22;;;;;;;7.40;2.88;;;;;;;23.06;41.33;102402.28;4918998;28;20034;-69
2022/08/29 09:25:19;;;;;;;5.50;2.70;;;;;;;23.11;41.34;102403.13;4918453;28;20034;-69
2022/08/29 09:27:48;;;;;;;7.35;3.05;;;;;;;23.16;42.05;102408.38;4925313;28;20043;-71
2022/08/29 09:30:37;;;;;;;8.50;2.95;;;;;;;23.55;40.89;102405.13;4896546;28;20407;-71
2022/08/29 09:33:11;;;;;;;6.65;3.13;;;;;;;22.90;41.97;102412.25;4910204;28;20050;-69
2022/08/29 09:35:42;;;;;;;5.22;2.45;;;;;;;23.71;41.33;102411.97;4937539;28;20038;-68
2022/08/29 09:38:16;;;;;;;7.60;2.80;;;;;;;22.64;41.92;102398.38;4932604;28;22627;-70
2022/08/29 09:41:02;;;;;;;8.82;3.10;;;;;;;23.30;42.29;102401.91;4922522;28;20122;-70
2022/08/29 09:43:43;;;;;;;5.38;2.55;;;;;;;23.40;41.25;102405.34;4936345;28;20085;-69
2022/08/29 09:46:24;;;;;;;6.20;2.85;;;;;;;23.71;41.03;102396.00;4927768;28;20076;-69
2022/08/29 09:48:58;;;;;;;6.15;2.70;;;;;;;23.62;40.83;102404.13;4922545;28;20026;-70
2022/08/29 09:51:32;;;;;;;5.55;2.90;;;;;;;23.96;40.55;102395.56;4936572;28;20046;-69
2022/08/29 09:54:21;;;;;;;7.95;2.80;;;;;;;23.54;42.31;102394.50;4922595;28;20088;-70
2022/08/29 09:57:19;;;;;;;5.88;2.80;;;;;;;23.26;42.28;102396.69;4914516;28;20035;-70
2022/08/29 10:00:13;;;;;;;6.20;2.72;;;;;;;22.70;43.22;102394.75;4927693;28;20042;-69
2022/08/29 10:02:43;;;;;;;7.10;2.80;;;;;;;22.46;44.83;102387.97;4921390;28;20128;-69
2022/08/29 10:05:34;;;;;;;8.38;2.55;;;;;;;22.69;43.03;102393.03;4921625;28;20298;-69
2022/08/29 10:08:04;;;;;;;6.05;2.88;;;;;;;22.68;44.16;102402.78;4926630;28;20074;-69
2022/08/29 10:10:33;;;;;;;5.43;2.60;;;;;;;23.10;43.79;102401.34;4928240;28;20038;-68
2022/08/29 10:13:18;;;;;;;7.88;2.75;;;;;;;22.89;42.99;102398.97;4910275;28;20066;-69
2022/08/29 10:15:50;;;;;;;7.82;2.65;;;;;;;22.95;43.42;102399.78;4926049;28;20069;-69
2022/08/29 10:18:49;;;;;;;6.95;2.53;;;;;;;22.53;44.02;102400.28;4948393;28;20051;-71
2022/08/29 10:21:55;;;;;;;6.25;2.60;;;;;;;22.62;44.34;102403.75;4923890;28;20467;-70
2022/08/29 10:24:38;;;;;;;7.63;2.60;;;;;;;22.44;46.16;102409.28;4931349;28;20047;-69
2022/08/29 10:27:30;;;;;;;8.98;2.70;;;;;;;22.48;44.14;102402.13;4900392;28;20752;-67
2022/08/29 10:30:10;;;;;;;7.28;2.58;;;;;;;22.07;45.32;102408.78;4917046;28;20044;-68
2022/08/29 10:33:10;;;;;;;5.57;2.50;;;;;;;21.79;45.18;102405.44;4935624;28;20034;-71
2022/08/29 10:35:38;;;;;;;4.47;2.38;;;;;;;22.57;43.62;102400.22;4924490;28;20158;-68
2022/08/29 10:38:18;;;;;;;7.43;2.38;;;;;;;22.75;43.85;102404.47;4933850;28;20490;-69
2022/08/29 10:40:48;;;;;;;6.38;2.58;;;;;;;22.39;45.98;102402.22;4921454;28;20029;-69
2022/08/29 10:43:15;;;;;;;5.78;2.80;;;;;;;22.24;44.61;102401.50;4936082;28;20038;-71
2022/08/29 10:46:09;;;;;;;8.82;3.08;;;;;;;22.40;45.90;102402.22;4940215;28;20425;-69
2022/08/29 10:48:47;;;;;;;8.90;3.10;;;;;;;22.82;44.59;102391.97;4933288;28;20494;-70
2022/08/29 10:51:28;;;;;;;8.82;2.80;;;;;;;22.73;44.51;102397.44;4915636;28;20513;-70
2022/08/29 10:54:09;;;;;;;8.23;2.97;;;;;;;23.10;44.56;102398.69;4918950;28;20059;-73
2022/08/29 10:56:41;;;;;;;7.25;2.80;;;;;;;23.85;43.86;102385.94;4940035;28;20727;-71
2022/08/29 10:59:10;;;;;;;6.18;2.80;;;;;;;24.30;40.94;102372.72;4913810;28;20035;-72
2022/08/29 11:01:48;;;;;;;6.75;2.55;;;;;;;24.52;40.53;102383.81;4923915;28;20105;-72
2022/08/29 11:04:28;;;;;;;5.88;2.67;;;;;;;23.80;41.87;102384.28;4931696;28;20051;-67
2022/08/29 11:07:17;;;;;;;6.05;2.65;;;;;;;24.05;41.13;102379.38;4915175;28;20137;-66
2022/08/29 11:09:52;;;;;;;7.25;2.72;;;;;;;24.37;40.54;102373.47;4929043;28;20918;-66
2022/08/29 11:12:45;;;;;;;6.35;2.65;;;;;;;24.05;41.17;102371.41;4924284;28;20050;-66
2022/08/29 11:15:31;;;;;;;7.78;2.70;;;;;;;24.03;41.12;102371.41;4903280;28;20145;-66
2022/08/29 11:18:32;;;;;;;5.78;2.70;;;;;;;23.56;42.38;102382.91;4932176;28;20046;-66
2022/08/29 11:21:06;;;;;;;6.15;2.65;;;;;;;23.12;43.29;102378.25;4911661;28;20358;-66
2022/08/29 11:23:40;;;;;;;5.90;2.60;;;;;;;23.36;43.18;102382.34;4921334;28;21279;-67
2022/08/29 11:26:23;;;;;;;8.55;2.85;;;;;;;23.79;42.24;102363.88;4938150;28;20073;-66
2022/08/29 11:28:59;;;;;;;9.10;3.17;;;;;;;23.68;42.59;102371.19;4918731;28;20014;-67
2022/08/29 11:31:49;;;;;;;6.05;2.88;;;;;;;24.18;41.09;102368.50;4912762;28;20053;-66
2022/08/29 11:34:18;;;;;;;7.80;2.90;;;;;;;23.48;43.99;102373.31;4928052;28;20576;-67
2022/08/29 11:37:11;;;;;;;8.85;3.00;;;;;;;23.78;43.42;102363.03;4909313;28;20142;-65
2022/08/29 11:40:15;;;;;;;6.07;2.85;;;;;;;24.20;42.12;102371.16;4933926;28;20046;-67
2022/08/29 11:42:47;;;;;;;10.07;2.88;;;;;;;24.19;41.46;102362.28;4930666;28;20616;-67